To NAV CANADA Home Page Login to a new session Search on AWWS site Feedback and Comments Disclaimer Vers la page française équivalente Tips FAQ What's new on the site To the Forecasts and Observations / NOTAM section To "File a Flight Plan" website Publications and other links Update of the User's profile FIC Telephone Numbers My Weather Data Folder Route Weather Data Regional Weather Data Local Weather Data To the Forecasts and Observations / NOTAM section
Request Generated 01/17/2017 at 04:49:01 UTC . Weather information available at that time is displayed.

METAR/TAF

CAPE DORSET/NU    (show WxCam)

SPECI CYTE 170434Z AUTO 22009G16KT 9SM SCT014 BKN100 M19/M21 A2992
RMK SLP139=
SPECI CYTE 170429Z AUTO 22012G17KT 7SM -SN SCT014 BKN110 M19/M21
A2992 RMK SLP140=
SPECI CYTE 170428Z AUTO 23012G17KT 6SM -SN BKN014 BKN110 M19/M21
A2992 RMK SLP140=
SPECI CYTE 170419Z AUTO 22012G19KT 4SM -SN BKN014 BKN110 BKN130
M19/M21 A2992 RMK SLP141=
SPECI CYTE 170418Z AUTO 22012G19KT 4SM -SN SCT014 BKN110 BKN130
M19/M21 A2992 RMK SLP140=
SPECI CYTE 170412Z AUTO 22014G19KT 5SM BR SCT014 BKN110 BKN130
M19/M21 A2992 RMK SLP141=
METAR CYTE 170400Z AUTO 22009KT 9SM SCT014 BKN110 BKN130 M19/M21
A2993 RMK SLP143=
SPECI CYTE 170358Z AUTO 22010KT 9SM SCT014 BKN110 BKN130 M19/M21
A2993 RMK SLP143=
SPECI CYTE 170349Z AUTO 22010KT 8SM BKN014 BKN120 M19/M21 A2993 RMK
SLP145=
SPECI CYTE 170346Z AUTO 23011KT 7SM -SN BKN014 M19/M21 A2993 RMK
SLP145=
SPECI CYTE 170340Z AUTO 22010G15KT 3SM -SN OVC014 M19/M21 A2993 RMK
SLP144=
SPECI CYTE 170321Z AUTO 24005KT 220V290 2SM -SN OVC014 M20/M21 A2994
RMK SLP146=
SPECI CYTE 170312Z AUTO 25009KT 240V300 1 3/4SM -SN OVC014 M20/M22
A2994 RMK SLP146=
SPECI CYTE 170307Z AUTO 27005KT 2 1/2SM -SN OVC014 M21/M23 A2994 RMK
SLP147=
METAR CYTE 170300Z AUTO 27004KT 250V320 5SM -SN OVC012 M21/M23 A2994
RMK SLP148=
SPECI CYTE 170258Z AUTO 29004KT 5SM -SN OVC012 M21/M23 A2994 RMK
SLP148=
SPECI CYTE 170236Z AUTO 29003KT 250V320 9SM -SN BKN012 OVC130 M21/M23
A2995 RMK SLP152=
SPECI CYTE 170219Z AUTO 30002KT 9SM BKN014 BKN130 M22/M24 A2996 RMK
SLP154=
SPECI CYTE 170209Z AUTO VRB04KT 9SM SCT012 BKN130 M21/M23 A2996 RMK
SLP154=
SPECI CYTE 170206Z AUTO VRB02KT 9SM BKN012 BKN130 M22/M24 A2996 RMK
SLP154=
METAR CYTE 170200Z AUTO VRB02KT 9SM -SN BKN012 BKN130 M22/M24 A2996
RMK SLP155=

TAF AMD CYTE 170324Z 1703/1713 26007KT P6SM SCT012 TEMPO 1703/1705
2SM -SN BKN012
BECMG 1703/1705 20012KT
FM170500 20018KT P6SM SCT008 BKN080 TEMPO 1705/1707 2SM -SN BLSN
BKN008
FM170700 19022G32KT 2SM -SN BLSN OVC015 TEMPO 1707/1713 1/2SM -SN
BLSN OVC007
RMK FCST BASED ON AUTO OBS. NXT FCST BY 170700Z=
Your time UTC time
Weather data provided by Environment Canada and NAV CANADA